createdAt,value
2022-09-15T00:01:41.951Z,3.97
2022-09-15T00:04:10.655Z,3.28
2022-09-15T00:06:39.506Z,3.13
2022-09-15T00:09:08.347Z,3.75
2022-09-15T00:11:38.391Z,3.38
2022-09-15T00:14:09.805Z,3.40
2022-09-15T00:16:38.891Z,3.35
2022-09-15T00:19:07.667Z,3.55
2022-09-15T00:21:38.521Z,3.63
2022-09-15T00:24:08.045Z,3.28
2022-09-15T00:26:37.360Z,3.50
2022-09-15T00:29:06.531Z,3.60
2022-09-15T00:31:36.447Z,3.63
2022-09-15T00:34:07.206Z,3.30
2022-09-15T00:36:35.982Z,3.33
2022-09-15T00:39:05.136Z,3.38
2022-09-15T00:41:34.110Z,3.50
2022-09-15T00:44:05.156Z,3.00
2022-09-15T00:46:37.097Z,2.92
2022-09-15T00:49:10.745Z,3.58
2022-09-15T00:51:44.172Z,3.30
2022-09-15T00:54:18.643Z,3.30
2022-09-15T00:56:50.509Z,3.03
2022-09-15T00:59:22.318Z,3.28
2022-09-15T01:01:59.636Z,3.33
2022-09-15T01:04:28.645Z,3.30
2022-09-15T01:07:00.547Z,3.65
2022-09-15T01:09:32.652Z,3.15
2022-09-15T01:12:02.346Z,3.40
2022-09-15T01:14:31.493Z,3.42
2022-09-15T01:17:06.957Z,3.85
2022-09-15T01:19:59.422Z,3.35
2022-09-15T01:22:37.639Z,3.33
2022-09-15T01:25:11.290Z,3.15
2022-09-15T01:28:12.422Z,3.78
2022-09-15T01:30:49.099Z,3.38
2022-09-15T01:33:26.896Z,3.28
2022-09-15T01:36:06.044Z,3.08
2022-09-15T01:38:43.041Z,3.20
2022-09-15T01:41:16.901Z,3.42
2022-09-15T01:43:52.091Z,3.80
2022-09-15T01:46:27.679Z,3.50
2022-09-15T01:48:57.983Z,3.53
2022-09-15T01:51:29.370Z,4.00
2022-09-15T01:54:00.740Z,3.63
2022-09-15T01:56:29.626Z,3.78
2022-09-15T01:58:58.500Z,3.63
2022-09-15T02:01:42.181Z,3.47
2022-09-15T02:04:16.020Z,3.47
2022-09-15T02:06:53.335Z,4.55
2022-09-15T02:09:26.385Z,3.88
2022-09-15T02:12:02.541Z,3.65
2022-09-15T02:14:43.147Z,3.90
2022-09-15T02:17:17.294Z,4.38
2022-09-15T02:19:50.855Z,4.00
2022-09-15T02:22:24.832Z,3.60
2022-09-15T02:24:59.014Z,4.50
2022-09-15T02:27:32.081Z,4.10
2022-09-15T02:30:06.065Z,4.20
2022-09-15T02:32:40.841Z,4.35
2022-09-15T02:35:11.869Z,4.50
2022-09-15T02:37:40.635Z,4.90
2022-09-15T02:40:10.266Z,5.10
2022-09-15T02:42:39.198Z,5.75
2022-09-15T02:45:08.954Z,6.20
2022-09-15T02:47:38.905Z,6.90
2022-09-15T02:50:08.665Z,5.72
2022-09-15T02:52:37.346Z,6.60
2022-09-15T02:55:06.689Z,6.43
2022-09-15T02:57:35.338Z,6.68
2022-09-15T03:00:14.568Z,6.72
2022-09-15T03:02:47.024Z,6.25
2022-09-15T03:05:17.968Z,5.97
2022-09-15T03:07:46.617Z,6.35
2022-09-15T03:10:16.093Z,5.65
2022-09-15T03:12:48.318Z,5.95
2022-09-15T03:15:18.850Z,4.53
2022-09-15T03:17:49.193Z,4.63
2022-09-15T03:20:20.789Z,4.22
2022-09-15T03:22:49.968Z,3.28
2022-09-15T03:25:19.109Z,3.42
2022-09-15T03:27:48.246Z,2.83
2022-09-15T03:30:18.095Z,2.67
2022-09-15T03:32:48.727Z,2.72
2022-09-15T03:35:17.452Z,2.70
2022-09-15T03:37:46.063Z,2.45
2022-09-15T03:40:14.924Z,2.63
2022-09-15T03:42:43.588Z,2.70
2022-09-15T03:45:12.208Z,2.67
2022-09-15T03:47:40.811Z,2.38
2022-09-15T03:50:11.047Z,2.28
2022-09-15T03:52:39.750Z,2.42
2022-09-15T03:55:09.124Z,2.20
2022-09-15T03:57:37.757Z,2.20
2022-09-15T04:00:08.146Z,2.53
2022-09-15T04:02:36.801Z,2.42
2022-09-15T04:05:06.028Z,2.38
2022-09-15T04:07:36.341Z,2.58
2022-09-15T04:10:05.425Z,2.50
2022-09-15T04:12:34.487Z,2.30
2022-09-15T04:15:04.031Z,2.80
2022-09-15T04:17:32.642Z,2.50
2022-09-15T04:20:01.269Z,2.67
2022-09-15T04:22:31.982Z,2.60
2022-09-15T04:25:01.954Z,2.90
2022-09-15T04:27:34.277Z,2.72
2022-09-15T04:30:03.118Z,2.67
2022-09-15T04:32:32.349Z,2.80
2022-09-15T04:35:00.930Z,2.88
2022-09-15T04:37:29.601Z,3.00
2022-09-15T04:39:58.406Z,3.08
2022-09-15T04:42:28.793Z,2.97
2022-09-15T04:44:57.453Z,2.90
2022-09-15T04:47:26.101Z,3.17
2022-09-15T04:49:54.690Z,3.15
2022-09-15T04:52:23.342Z,3.20
2022-09-15T04:54:52.165Z,3.50
2022-09-15T04:57:20.743Z,2.80
2022-09-15T04:59:50.720Z,3.00
2022-09-15T05:02:19.465Z,3.15
2022-09-15T05:04:49.378Z,2.83
2022-09-15T05:07:18.015Z,3.00
2022-09-15T05:09:46.596Z,2.75
2022-09-15T05:12:15.217Z,3.35
2022-09-15T05:14:44.085Z,2.88
2022-09-15T05:17:14.093Z,3.20
2022-09-15T05:19:42.720Z,2.92
2022-09-15T05:22:11.464Z,3.15
2022-09-15T05:24:40.052Z,3.30
2022-09-15T05:27:08.625Z,3.15
2022-09-15T05:29:37.301Z,3.58
2022-09-15T05:32:06.082Z,3.15
2022-09-15T05:34:36.083Z,3.28
2022-09-15T05:37:05.293Z,3.25
2022-09-15T05:39:33.947Z,3.30
2022-09-15T05:42:02.627Z,3.10
2022-09-15T05:44:31.571Z,3.25
2022-09-15T05:47:00.306Z,3.08
2022-09-15T05:49:29.427Z,3.38
2022-09-15T05:51:59.427Z,2.90
2022-09-15T05:54:28.426Z,3.00
2022-09-15T05:56:57.055Z,3.60
2022-09-15T05:59:25.748Z,3.60
2022-09-15T06:01:54.386Z,3.70
2022-09-15T06:04:23.261Z,3.25
2022-09-15T06:06:51.813Z,3.97
2022-09-15T06:09:21.906Z,4.00
2022-09-15T06:11:50.484Z,3.75
2022-09-15T06:14:19.080Z,4.22
2022-09-15T06:16:47.662Z,4.82
2022-09-15T06:19:16.292Z,4.63
2022-09-15T06:21:44.864Z,5.00
2022-09-15T06:24:13.921Z,5.40
2022-09-15T06:26:43.962Z,6.55
2022-09-15T06:29:13.805Z,6.30
2022-09-15T06:31:42.477Z,6.35
2022-09-15T06:34:11.405Z,5.60
2022-09-15T06:36:40.403Z,6.20
2022-09-15T06:39:09.814Z,5.93
2022-09-15T06:41:58.854Z,6.38
2022-09-15T06:44:31.692Z,5.40
2022-09-15T06:47:00.307Z,5.68
2022-09-15T06:49:29.086Z,5.22
2022-09-15T06:51:57.773Z,5.07
2022-09-15T06:54:26.440Z,3.35
2022-09-15T06:56:55.042Z,2.28
2022-09-15T06:59:24.604Z,1.50
2022-09-15T07:01:55.535Z,1.10
2022-09-15T07:04:24.210Z,1.00
2022-09-15T07:06:52.837Z,0.90
2022-09-15T07:09:21.455Z,0.75
2022-09-15T07:11:50.114Z,0.60
2022-09-15T07:14:18.726Z,0.98
2022-09-15T07:16:47.370Z,0.77
2022-09-15T07:19:17.415Z,0.65
2022-09-15T07:21:46.042Z,0.80
2022-09-15T07:24:15.007Z,0.65
2022-09-15T07:26:43.643Z,0.73
2022-09-15T07:29:12.291Z,0.60
2022-09-15T07:31:41.063Z,0.60
2022-09-15T07:34:09.753Z,0.60
2022-09-15T07:36:39.830Z,0.63
2022-09-15T07:39:08.577Z,0.40
2022-09-15T07:41:37.164Z,0.50
2022-09-15T07:44:09.107Z,0.55
2022-09-15T07:46:37.745Z,0.50
2022-09-15T07:49:08.211Z,0.50
2022-09-15T07:51:36.882Z,0.43
2022-09-15T07:54:07.233Z,0.50
2022-09-15T07:56:35.841Z,0.50
2022-09-15T07:59:04.471Z,0.60
2022-09-15T08:01:33.107Z,0.50
2022-09-15T08:04:01.822Z,0.32
2022-09-15T08:06:30.497Z,0.50
2022-09-15T08:09:00.678Z,0.50
2022-09-15T08:11:30.986Z,0.40
2022-09-15T08:14:02.420Z,0.47
2022-09-15T08:16:31.314Z,0.40
2022-09-15T08:19:00.295Z,0.30
2022-09-15T08:21:29.362Z,0.35
2022-09-15T08:23:59.685Z,0.50
2022-09-15T08:26:30.990Z,0.43
2022-09-15T08:29:00.647Z,0.50
2022-09-15T08:31:29.580Z,0.98
2022-09-15T08:33:58.318Z,1.38
2022-09-15T08:36:28.271Z,0.68
2022-09-15T08:38:57.315Z,0.90
2022-09-15T08:41:30.321Z,0.90
2022-09-15T08:44:05.626Z,2.60
2022-09-15T08:46:40.408Z,0.90
2022-09-15T08:49:14.570Z,0.65
2022-09-15T08:51:47.211Z,1.08
2022-09-15T08:54:21.199Z,1.10
2022-09-15T08:56:50.168Z,0.65
2022-09-15T08:59:21.617Z,0.60
2022-09-15T09:02:03.453Z,0.60
2022-09-15T09:04:49.596Z,0.40
2022-09-15T09:07:30.462Z,0.52
2022-09-15T09:10:06.983Z,0.50
2022-09-15T09:12:50.821Z,0.70
2022-09-15T09:15:43.761Z,0.57
2022-09-15T09:18:29.917Z,0.63
2022-09-15T09:21:04.623Z,0.73
2022-09-15T09:23:36.821Z,0.50
2022-09-15T09:26:10.345Z,0.80
2022-09-15T09:28:42.738Z,0.77
2022-09-15T09:31:20.024Z,1.95
2022-09-15T09:33:54.899Z,2.13
2022-09-15T09:36:23.807Z,1.05
2022-09-15T09:38:52.677Z,1.00
2022-09-15T09:41:25.467Z,0.65
2022-09-15T09:43:56.712Z,0.60
2022-09-15T09:46:26.718Z,0.52
2022-09-15T09:49:01.945Z,0.80
2022-09-15T09:51:32.848Z,0.65
2022-09-15T09:54:16.136Z,0.60
2022-09-15T09:56:45.582Z,0.57
2022-09-15T09:59:39.728Z,0.70
2022-09-15T10:02:18.956Z,0.70
2022-09-15T10:04:49.121Z,1.00
2022-09-15T10:07:20.025Z,0.68
2022-09-15T10:09:54.526Z,1.20
2022-09-15T10:12:26.924Z,2.42
2022-09-15T10:14:57.898Z,1.38
2022-09-15T10:17:39.328Z,3.25
2022-09-15T10:20:24.470Z,2.00
2022-09-15T10:22:53.580Z,1.45
2022-09-15T10:25:49.640Z,1.30
2022-09-15T10:28:25.816Z,1.33
2022-09-15T10:31:03.354Z,1.40
2022-09-15T10:33:35.294Z,1.42
2022-09-15T10:36:07.286Z,1.40
2022-09-15T10:38:42.076Z,1.48
2022-09-15T10:41:21.764Z,1.73
2022-09-15T10:44:24.097Z,2.00
2022-09-15T10:47:04.097Z,2.80
2022-09-15T10:49:49.800Z,2.30
2022-09-15T10:52:27.998Z,2.60
2022-09-15T10:55:10.292Z,2.83
2022-09-15T10:57:54.524Z,2.95
2022-09-15T11:00:24.328Z,2.78
2022-09-15T11:03:26.485Z,3.30
2022-09-15T11:06:07.366Z,3.22
2022-09-15T11:09:04.538Z,3.47
2022-09-15T11:11:43.700Z,3.55
2022-09-15T11:14:30.665Z,3.67
2022-09-15T11:17:11.133Z,3.70
2022-09-15T11:19:55.682Z,4.20
2022-09-15T11:22:30.152Z,4.82
2022-09-15T11:25:02.480Z,4.20
2022-09-15T11:27:36.585Z,4.03
2022-09-15T11:30:08.631Z,4.47
2022-09-15T11:32:42.566Z,4.07
2022-09-15T11:35:35.585Z,4.35
2022-09-15T11:38:22.404Z,4.40
2022-09-15T11:40:57.660Z,4.50
2022-09-15T11:43:33.894Z,3.60
2022-09-15T11:46:11.293Z,3.55
2022-09-15T11:48:45.807Z,3.28
2022-09-15T11:51:17.642Z,3.58
2022-09-15T11:53:52.757Z,3.53
2022-09-15T11:56:27.439Z,3.50
2022-09-15T11:59:05.642Z,3.70
2022-09-15T12:01:40.036Z,3.05
2022-09-15T12:04:13.994Z,2.80
2022-09-15T12:06:49.189Z,3.80
2022-09-15T12:09:21.454Z,2.95
2022-09-15T12:11:53.608Z,3.03
2022-09-15T12:14:29.334Z,3.10
2022-09-15T12:16:59.112Z,3.17
2022-09-15T12:19:50.770Z,2.85
2022-09-15T12:22:24.997Z,2.90
2022-09-15T12:25:01.326Z,2.72
2022-09-15T12:27:30.669Z,3.28
2022-09-15T12:30:01.130Z,3.58
2022-09-15T12:32:31.035Z,4.05
2022-09-15T12:35:02.241Z,3.90
2022-09-15T12:37:37.392Z,4.63
2022-09-15T12:40:26.350Z,3.85
2022-09-15T12:42:55.267Z,3.92
2022-09-15T12:45:27.247Z,4.00
2022-09-15T12:47:57.744Z,4.20
2022-09-15T12:50:34.269Z,4.40
2022-09-15T12:53:13.082Z,3.95
2022-09-15T12:55:50.137Z,4.32
2022-09-15T12:58:22.102Z,4.25
2022-09-15T13:01:14.320Z,4.25
2022-09-15T13:04:14.047Z,4.35
2022-09-15T13:07:21.392Z,3.83
2022-09-15T13:09:58.829Z,4.22
2022-09-15T13:12:35.155Z,4.13
2022-09-15T13:15:07.938Z,3.78
2022-09-15T13:17:37.261Z,4.25
2022-09-15T13:20:15.562Z,4.00
2022-09-15T13:22:48.396Z,4.30
2022-09-15T13:25:20.728Z,4.15
2022-09-15T13:27:53.428Z,3.85
2022-09-15T13:30:37.598Z,3.92
2022-09-15T13:33:18.387Z,3.80
2022-09-15T13:36:00.988Z,3.75
2022-09-15T13:38:51.910Z,3.78
2022-09-15T13:41:42.847Z,3.88
2022-09-15T13:44:29.815Z,3.50
2022-09-15T13:47:11.004Z,3.10
2022-09-15T13:49:51.901Z,3.78
2022-09-15T13:52:33.936Z,2.83
2022-09-15T13:55:10.633Z,3.53
2022-09-15T14:00:34.199Z,2.72
2022-09-15T14:03:06.405Z,2.65
2022-09-15T14:05:36.921Z,2.90
2022-09-15T14:08:09.661Z,2.80
2022-09-15T14:10:46.331Z,2.63
2022-09-15T14:13:17.545Z,3.08
2022-09-15T14:15:59.944Z,3.05
2022-09-15T14:18:29.089Z,3.40
2022-09-15T14:21:05.081Z,3.40
2022-09-15T14:23:34.664Z,3.00
2022-09-15T14:26:03.800Z,2.85
2022-09-15T14:28:33.821Z,2.92
2022-09-15T14:31:03.907Z,3.00
2022-09-15T14:33:38.130Z,2.75
2022-09-15T14:36:23.389Z,2.92
2022-09-15T14:39:18.898Z,3.30
2022-09-15T14:41:48.279Z,2.33
2022-09-15T14:47:22.183Z,2.83
2022-09-15T14:49:50.780Z,2.45
2022-09-15T14:52:27.133Z,2.00
2022-09-15T14:55:01.108Z,2.00
2022-09-15T14:57:32.720Z,1.80
2022-09-15T15:00:07.014Z,1.80
2022-09-15T15:02:50.156Z,2.40
2022-09-15T15:05:23.011Z,2.00
2022-09-15T15:07:52.790Z,2.08
2022-09-15T15:10:23.843Z,2.22
2022-09-15T15:12:56.188Z,1.90
2022-09-15T15:15:24.933Z,2.50
2022-09-15T15:17:55.477Z,1.90
2022-09-15T15:20:27.034Z,2.03
2022-09-15T15:23:12.985Z,2.35
2022-09-15T15:25:42.470Z,2.13
2022-09-15T15:28:32.915Z,1.98
2022-09-15T15:31:23.558Z,1.92
2022-09-15T15:33:59.119Z,2.05
2022-09-15T15:36:29.600Z,1.70
2022-09-15T15:38:59.765Z,2.05
2022-09-15T15:41:31.032Z,1.83
2022-09-15T15:44:03.315Z,1.90
2022-09-15T15:46:57.171Z,1.90
2022-09-15T15:49:29.283Z,2.00
2022-09-15T15:51:58.714Z,1.65
2022-09-15T15:54:27.693Z,1.95
2022-09-15T15:56:56.888Z,1.88
2022-09-15T15:59:25.430Z,1.92
2022-09-15T16:01:54.169Z,1.90
2022-09-15T16:04:22.918Z,2.20
2022-09-15T16:06:53.649Z,2.20
2022-09-15T16:09:22.234Z,2.90
2022-09-15T16:11:51.234Z,2.70
2022-09-15T16:14:19.893Z,3.38
2022-09-15T16:16:48.448Z,4.60
2022-09-15T16:19:17.040Z,4.30
2022-09-15T16:21:45.763Z,3.85
2022-09-15T16:24:16.609Z,4.15
2022-09-15T16:26:45.270Z,3.58
2022-09-15T16:29:14.155Z,3.00
2022-09-15T16:31:43.565Z,3.00
2022-09-15T16:34:17.596Z,3.35
2022-09-15T16:36:46.534Z,3.30
2022-09-15T16:39:16.448Z,2.95
2022-09-15T16:41:45.072Z,2.70
2022-09-15T16:44:19.206Z,3.10
2022-09-15T16:46:47.919Z,3.20
2022-09-15T16:49:16.556Z,3.50
2022-09-15T16:51:45.196Z,3.15
2022-09-15T16:54:17.745Z,2.97
2022-09-15T16:56:46.793Z,2.95
2022-09-15T16:59:15.694Z,2.58
2022-09-15T17:01:44.300Z,2.90
2022-09-15T17:04:16.516Z,3.17
2022-09-15T17:06:45.160Z,2.83
2022-09-15T17:09:13.757Z,2.70
2022-09-15T17:11:43.701Z,3.03
2022-09-15T17:14:16.165Z,6.85
2022-09-15T17:16:47.318Z,3.67
2022-09-15T17:19:15.932Z,3.55
2022-09-15T17:21:44.561Z,3.13
2022-09-15T17:24:13.118Z,3.42
2022-09-15T17:26:43.087Z,3.80
2022-09-15T17:29:11.651Z,3.40
2022-09-15T17:31:40.266Z,3.30
2022-09-15T17:34:14.174Z,3.58
2022-09-15T17:36:42.827Z,4.28
2022-09-15T17:39:11.482Z,3.35
2022-09-15T17:41:40.133Z,3.47
2022-09-15T17:44:11.960Z,4.18
2022-09-15T17:46:40.686Z,3.90
2022-09-15T17:49:09.442Z,3.70
2022-09-15T17:51:38.058Z,3.97
2022-09-15T17:54:07.448Z,4.00
2022-09-15T17:56:36.446Z,3.90
2022-09-15T17:59:05.202Z,3.97
2022-09-15T18:01:35.207Z,3.78
2022-09-15T18:04:04.260Z,4.03
2022-09-15T18:06:32.952Z,4.53
2022-09-15T18:09:01.534Z,3.97
2022-09-15T18:11:30.197Z,3.92
2022-09-15T18:13:58.863Z,4.20
2022-09-15T18:16:27.515Z,4.20
2022-09-15T18:18:57.451Z,4.00
2022-09-15T18:21:29.113Z,4.20
2022-09-15T18:23:58.531Z,4.25
2022-09-15T18:26:27.188Z,4.18
2022-09-15T18:28:56.917Z,3.88
2022-09-15T18:31:25.509Z,4.22
2022-09-15T18:33:54.306Z,5.63
2022-09-15T18:36:24.515Z,5.07
2022-09-15T18:38:53.253Z,4.68
2022-09-15T18:41:21.924Z,3.97
2022-09-15T18:43:50.532Z,4.43
2022-09-15T18:46:20.370Z,4.32
2022-09-15T18:48:49.028Z,4.85
2022-09-15T18:51:24.070Z,4.90
2022-09-15T18:53:59.819Z,4.93
2022-09-15T18:56:28.876Z,4.43
2022-09-15T18:58:57.697Z,4.72
2022-09-15T19:01:26.450Z,4.68
2022-09-15T19:03:55.316Z,5.00
2022-09-15T19:06:23.994Z,4.68
2022-09-15T19:08:52.724Z,5.10
2022-09-15T19:11:22.867Z,4.60
2022-09-15T19:13:53.735Z,4.80
2022-09-15T19:16:34.712Z,4.55
2022-09-15T19:19:11.962Z,4.72
2022-09-15T19:21:40.505Z,4.78
2022-09-15T19:24:09.142Z,5.45
2022-09-15T19:26:39.290Z,5.10
2022-09-15T19:29:07.845Z,5.40
2022-09-15T19:31:41.667Z,5.25
2022-09-15T19:34:10.867Z,4.93
2022-09-15T19:36:39.640Z,4.75
2022-09-15T19:39:08.248Z,4.78
2022-09-15T19:41:38.481Z,4.57
2022-09-15T19:44:10.592Z,4.82
2022-09-15T19:46:39.595Z,4.60
2022-09-15T19:49:08.862Z,5.18
2022-09-15T19:51:37.560Z,4.93
2022-09-15T19:54:06.990Z,5.00
2022-09-15T19:56:36.482Z,6.05
2022-09-15T19:59:07.199Z,5.72
2022-09-15T20:01:35.938Z,7.18
2022-09-15T20:04:05.620Z,8.25
2022-09-15T20:06:34.276Z,9.07
2022-09-15T20:09:03.410Z,5.80
2022-09-15T20:11:33.023Z,5.90
2022-09-15T20:14:01.858Z,5.47
2022-09-15T20:16:32.126Z,6.18
2022-09-15T20:19:00.980Z,5.40
2022-09-15T20:21:49.197Z,5.90
2022-09-15T20:24:20.196Z,6.00
2022-09-15T20:26:49.304Z,5.20
2022-09-15T20:29:18.749Z,6.20
2022-09-15T20:31:49.451Z,5.40
2022-09-15T20:34:19.114Z,6.32
2022-09-15T20:36:47.917Z,5.47
2022-09-15T20:39:19.387Z,5.40
2022-09-15T20:41:48.026Z,5.43
2022-09-15T20:44:16.946Z,5.80
2022-09-15T20:46:45.499Z,6.30
2022-09-15T20:49:15.820Z,6.85
2022-09-15T20:51:45.167Z,6.60
2022-09-15T20:54:13.801Z,5.75
2022-09-15T20:56:42.443Z,5.57
2022-09-15T20:59:15.135Z,5.60
2022-09-15T21:01:44.409Z,5.65
2022-09-15T21:04:13.396Z,5.50
2022-09-15T21:06:43.337Z,5.47
2022-09-15T21:09:12.358Z,5.68
2022-09-15T21:11:43.228Z,5.75
2022-09-15T21:14:14.291Z,5.03
2022-09-15T21:16:43.375Z,5.45
2022-09-15T21:19:12.948Z,5.72
2022-09-15T21:21:42.880Z,6.55
2022-09-15T21:24:11.523Z,5.78
2022-09-15T21:27:02.072Z,6.35
2022-09-15T21:29:31.540Z,7.20
2022-09-15T21:32:00.249Z,6.70
2022-09-15T21:34:28.999Z,6.28
2022-09-15T21:36:58.959Z,6.10
2022-09-15T21:39:27.993Z,7.00
2022-09-15T21:41:56.576Z,6.07
2022-09-15T21:44:25.165Z,6.60
2022-09-15T21:46:54.760Z,7.15
2022-09-15T21:49:23.319Z,7.65
2022-09-15T21:51:52.267Z,7.30
2022-09-15T21:54:22.802Z,7.20
2022-09-15T21:56:51.672Z,6.75
2022-09-15T21:59:20.272Z,6.40
2022-09-15T22:01:49.522Z,6.80
2022-09-15T22:04:18.106Z,6.47
2022-09-15T22:06:47.353Z,6.57
2022-09-15T22:09:17.925Z,6.45
2022-09-15T22:11:48.303Z,6.80
2022-09-15T22:14:16.902Z,6.50
2022-09-15T22:16:45.750Z,7.05
2022-09-15T22:19:14.371Z,6.65
2022-09-15T22:21:42.962Z,7.00
2022-09-15T22:24:13.713Z,6.68
2022-09-15T22:26:43.399Z,6.68
2022-09-15T22:29:13.440Z,6.53
2022-09-15T22:31:42.318Z,6.32
2022-09-15T22:34:11.087Z,6.60
2022-09-15T22:36:39.712Z,7.03
2022-09-15T22:39:08.344Z,6.68
2022-09-15T22:41:38.417Z,6.55
2022-09-15T22:44:08.033Z,7.03
2022-09-15T22:46:38.036Z,6.70
2022-09-15T22:49:06.736Z,7.03
2022-09-15T22:51:35.303Z,6.78
2022-09-15T22:54:03.859Z,7.50
2022-09-15T22:56:32.633Z,8.43
2022-09-15T22:59:01.428Z,9.07
2022-09-15T23:01:32.024Z,10.73
2022-09-15T23:04:03.466Z,10.27
2022-09-15T23:06:33.779Z,10.32
2022-09-15T23:09:05.394Z,11.27
2022-09-15T23:11:34.505Z,9.93
2022-09-15T23:14:03.347Z,9.85
2022-09-15T23:16:32.297Z,11.63
2022-09-15T23:19:02.541Z,10.95
2022-09-15T23:21:31.202Z,10.32
2022-09-15T23:24:00.333Z,11.18
2022-09-15T23:26:29.063Z,11.93
2022-09-15T23:28:57.689Z,12.55
2022-09-15T23:31:26.407Z,11.07
2022-09-15T23:33:55.094Z,12.35
2022-09-15T23:36:24.996Z,12.43
2022-09-15T23:38:53.679Z,12.55
2022-09-15T23:41:22.472Z,13.05
2022-09-15T23:43:51.299Z,13.43
2022-09-15T23:46:19.959Z,12.77
2022-09-15T23:48:48.737Z,12.13
2022-09-15T23:51:17.545Z,11.90
2022-09-15T23:53:47.579Z,12.57
2022-09-15T23:56:16.368Z,12.80
2022-09-15T23:58:45.068Z,12.38
